sensor_id;sensor_type;location;lat;lon;timestamp;pressure;altitude;pressure_sealevel;temperature;humidity
74975;BME280;68459;50.836;19.138;2024-01-11T00:01:49;99767.16;;;-9.09;65.75
74975;BME280;68459;50.836;19.138;2024-01-11T00:04:55;99755.78;;;-9.08;65.30
74975;BME280;68459;50.836;19.138;2024-01-11T00:07:58;99754.09;;;-9.09;65.52
74975;BME280;68459;50.836;19.138;2024-01-11T00:11:03;99754.03;;;-9.08;66.31
74975;BME280;68459;50.836;19.138;2024-01-11T00:14:07;99761.78;;;-9.06;65.31
74975;BME280;68459;50.836;19.138;2024-01-11T00:17:11;99754.69;;;-9.04;65.28
74975;BME280;68459;50.836;19.138;2024-01-11T00:20:16;99746.84;;;-9.04;65.18
74975;BME280;68459;50.836;19.138;2024-01-11T00:23:20;99739.88;;;-9.04;65.80
74975;BME280;68459;50.836;19.138;2024-01-11T00:26:24;99736.41;;;-9.04;65.85
74975;BME280;68459;50.836;19.138;2024-01-11T00:29:28;99733.66;;;-9.01;65.76
74975;BME280;68459;50.836;19.138;2024-01-11T00:32:32;99733.66;;;-9.01;65.57
74975;BME280;68459;50.836;19.138;2024-01-11T00:35:38;99734.50;;;-9.01;65.29
74975;BME280;68459;50.836;19.138;2024-01-11T00:38:41;99721.38;;;-8.99;65.67
74975;BME280;68459;50.836;19.138;2024-01-11T00:41:46;99724.81;;;-8.98;65.68
74975;BME280;68459;50.836;19.138;2024-01-11T00:44:50;99733.50;;;-8.98;65.13
74975;BME280;68459;50.836;19.138;2024-01-11T00:47:54;99743.97;;;-8.98;65.24
74975;BME280;68459;50.836;19.138;2024-01-11T00:50:59;99739.59;;;-8.97;66.18
74975;BME280;68459;50.836;19.138;2024-01-11T00:54:03;99736.97;;;-8.97;65.62
74975;BME280;68459;50.836;19.138;2024-01-11T00:57:07;99729.34;;;-9.02;65.81
74975;BME280;68459;50.836;19.138;2024-01-11T01:00:12;99733.03;;;-9.06;65.37
74975;BME280;68459;50.836;19.138;2024-01-11T01:03:17;99727.03;;;-9.08;65.45
74975;BME280;68459;50.836;19.138;2024-01-11T01:06:22;99712.44;;;-9.12;65.77
74975;BME280;68459;50.836;19.138;2024-01-11T01:09:26;99710.88;;;-9.16;65.53
74975;BME280;68459;50.836;19.138;2024-01-11T01:12:30;99703.03;;;-9.16;65.68
74975;BME280;68459;50.836;19.138;2024-01-11T01:15:34;99705.72;;;-9.18;66.22
74975;BME280;68459;50.836;19.138;2024-01-11T01:18:38;99711.78;;;-9.17;65.86
74975;BME280;68459;50.836;19.138;2024-01-11T01:21:43;99715.25;;;-9.17;66.08
74975;BME280;68459;50.836;19.138;2024-01-11T01:24:48;99697.81;;;-9.16;66.06
74975;BME280;68459;50.836;19.138;2024-01-11T01:27:52;99701.19;;;-9.14;66.42
74975;BME280;68459;50.836;19.138;2024-01-11T01:30:56;99691.53;;;-9.12;66.45
74975;BME280;68459;50.836;19.138;2024-01-11T01:34:00;99693.22;;;-9.11;66.87
74975;BME280;68459;50.836;19.138;2024-01-11T01:37:05;99690.63;;;-9.11;66.76
74975;BME280;68459;50.836;19.138;2024-01-11T01:40:10;99694.00;;;-9.09;66.54
74975;BME280;68459;50.836;19.138;2024-01-11T01:43:14;99697.31;;;-9.06;66.24
74975;BME280;68459;50.836;19.138;2024-01-11T01:46:22;99701.59;;;-9.05;66.13
74975;BME280;68459;50.836;19.138;2024-01-11T01:49:27;99706.75;;;-9.03;65.87
74975;BME280;68459;50.836;19.138;2024-01-11T01:52:33;99715.22;;;-8.98;65.63
74975;BME280;68459;50.836;19.138;2024-01-11T01:55:38;99713.31;;;-8.94;65.95
74975;BME280;68459;50.836;19.138;2024-01-11T01:58:42;99720.91;;;-8.90;65.65
74975;BME280;68459;50.836;19.138;2024-01-11T02:01:47;99729.44;;;-8.86;66.20
74975;BME280;68459;50.836;19.138;2024-01-11T02:04:51;99734.53;;;-8.83;66.11
74975;BME280;68459;50.836;19.138;2024-01-11T02:07:57;99707.63;;;-8.85;66.27
74975;BME280;68459;50.836;19.138;2024-01-11T02:11:03;99715.59;;;-8.88;65.89
74975;BME280;68459;50.836;19.138;2024-01-11T02:14:07;99709.78;;;-8.93;66.02
74975;BME280;68459;50.836;19.138;2024-01-11T02:17:13;99689.88;;;-8.96;65.94
74975;BME280;68459;50.836;19.138;2024-01-11T02:20:18;99680.53;;;-9.02;65.88
74975;BME280;68459;50.836;19.138;2024-01-11T02:23:24;99676.41;;;-9.06;66.15
74975;BME280;68459;50.836;19.138;2024-01-11T02:26:32;99671.25;;;-9.07;65.42
74975;BME280;68459;50.836;19.138;2024-01-11T02:29:36;99662.50;;;-9.06;67.23
74975;BME280;68459;50.836;19.138;2024-01-11T02:32:44;99666.63;;;-9.02;65.90
74975;BME280;68459;50.836;19.138;2024-01-11T02:35:49;99650.81;;;-8.99;66.92
74975;BME280;68459;50.836;19.138;2024-01-11T02:38:54;99649.91;;;-8.98;66.17
74975;BME280;68459;50.836;19.138;2024-01-11T02:42:00;99646.13;;;-8.92;66.68
74975;BME280;68459;50.836;19.138;2024-01-11T02:45:05;99636.44;;;-8.90;66.78
74975;BME280;68459;50.836;19.138;2024-01-11T02:48:09;99640.66;;;-8.88;66.53
74975;BME280;68459;50.836;19.138;2024-01-11T02:51:13;99652.19;;;-8.92;66.02
74975;BME280;68459;50.836;19.138;2024-01-11T02:54:17;99649.66;;;-8.93;66.14
74975;BME280;68459;50.836;19.138;2024-01-11T02:57:23;99653.13;;;-8.93;66.80
74975;BME280;68459;50.836;19.138;2024-01-11T03:00:26;99639.44;;;-8.98;66.45
74975;BME280;68459;50.836;19.138;2024-01-11T03:03:30;99630.81;;;-9.00;66.66
74975;BME280;68459;50.836;19.138;2024-01-11T03:06:34;99623.31;;;-9.06;66.03
74975;BME280;68459;50.836;19.138;2024-01-11T03:09:39;99621.06;;;-9.14;66.81
74975;BME280;68459;50.836;19.138;2024-01-11T03:12:44;99620.38;;;-9.17;67.11
74975;BME280;68459;50.836;19.138;2024-01-11T03:15:49;99613.63;;;-9.21;66.95
74975;BME280;68459;50.836;19.138;2024-01-11T03:18:53;99620.69;;;-9.23;67.11
74975;BME280;68459;50.836;19.138;2024-01-11T03:21:57;99620.84;;;-9.26;66.66
74975;BME280;68459;50.836;19.138;2024-01-11T03:25:05;99632.06;;;-9.24;66.63
74975;BME280;68459;50.836;19.138;2024-01-11T03:28:11;99627.69;;;-9.24;67.02
74975;BME280;68459;50.836;19.138;2024-01-11T03:31:15;99625.00;;;-9.22;66.68
74975;BME280;68459;50.836;19.138;2024-01-11T03:34:19;99632.69;;;-9.19;66.85
74975;BME280;68459;50.836;19.138;2024-01-11T03:37:23;99627.28;;;-9.16;66.59
74975;BME280;68459;50.836;19.138;2024-01-11T03:40:28;99625.53;;;-9.16;66.45
74975;BME280;68459;50.836;19.138;2024-01-11T03:43:33;99628.06;;;-9.14;66.45
74975;BME280;68459;50.836;19.138;2024-01-11T03:46:38;99624.38;;;-9.10;66.36
74975;BME280;68459;50.836;19.138;2024-01-11T03:49:41;99631.31;;;-9.09;66.35
74975;BME280;68459;50.836;19.138;2024-01-11T03:52:45;99624.38;;;-9.10;66.57
74975;BME280;68459;50.836;19.138;2024-01-11T03:55:49;99615.78;;;-9.12;66.78
74975;BME280;68459;50.836;19.138;2024-01-11T03:58:55;99624.53;;;-9.13;66.13
74975;BME280;68459;50.836;19.138;2024-01-11T04:01:59;99622.84;;;-9.14;66.60
74975;BME280;68459;50.836;19.138;2024-01-11T04:05:04;99616.06;;;-9.18;66.39
74975;BME280;68459;50.836;19.138;2024-01-11T04:08:08;99600.41;;;-9.18;66.70
74975;BME280;68459;50.836;19.138;2024-01-11T04:11:12;99583.97;;;-9.20;66.78
74975;BME280;68459;50.836;19.138;2024-01-11T04:14:17;99585.81;;;-9.22;66.65
74975;BME280;68459;50.836;19.138;2024-01-11T04:17:21;99572.91;;;-9.25;66.83
74975;BME280;68459;50.836;19.138;2024-01-11T04:20:25;99578.13;;;-9.25;66.47
74975;BME280;68459;50.836;19.138;2024-01-11T04:23:30;99593.81;;;-9.25;66.93
74975;BME280;68459;50.836;19.138;2024-01-11T04:26:34;99611.94;;;-9.22;66.56
74975;BME280;68459;50.836;19.138;2024-01-11T04:29:40;99602.72;;;-9.12;66.71
74975;BME280;68459;50.836;19.138;2024-01-11T04:32:43;99592.72;;;-9.04;66.71
74975;BME280;68459;50.836;19.138;2024-01-11T04:35:47;99580.41;;;-9.02;66.31
74975;BME280;68459;50.836;19.138;2024-01-11T04:38:51;99570.13;;;-9.05;66.00
74975;BME280;68459;50.836;19.138;2024-01-11T04:41:55;99577.22;;;-9.07;66.29
74975;BME280;68459;50.836;19.138;2024-01-11T04:45:01;99568.59;;;-9.09;66.18
74975;BME280;68459;50.836;19.138;2024-01-11T04:48:07;99558.31;;;-9.12;66.45
74975;BME280;68459;50.836;19.138;2024-01-11T04:51:12;99552.63;;;-9.20;66.77
74975;BME280;68459;50.836;19.138;2024-01-11T04:54:17;99548.34;;;-9.21;66.80
74975;BME280;68459;50.836;19.138;2024-01-11T04:57:21;99546.63;;;-9.22;66.34
74975;BME280;68459;50.836;19.138;2024-01-11T05:00:26;99541.34;;;-9.21;66.47
74975;BME280;68459;50.836;19.138;2024-01-11T05:03:30;99545.66;;;-9.20;66.67
74975;BME280;68459;50.836;19.138;2024-01-11T05:06:35;99556.63;;;-9.13;66.59
74975;BME280;68459;50.836;19.138;2024-01-11T05:09:38;99538.09;;;-9.09;66.35
74975;BME280;68459;50.836;19.138;2024-01-11T05:12:43;99531.97;;;-9.08;66.25
74975;BME280;68459;50.836;19.138;2024-01-11T05:15:48;99525.63;;;-9.04;66.26
74975;BME280;68459;50.836;19.138;2024-01-11T05:18:53;99546.38;;;-9.01;65.97
74975;BME280;68459;50.836;19.138;2024-01-11T05:21:58;99541.06;;;-8.99;66.22
74975;BME280;68459;50.836;19.138;2024-01-11T05:25:03;99528.00;;;-8.99;66.19
74975;BME280;68459;50.836;19.138;2024-01-11T05:28:07;99532.31;;;-8.98;66.65
74975;BME280;68459;50.836;19.138;2024-01-11T05:31:13;99533.09;;;-8.96;66.57
74975;BME280;68459;50.836;19.138;2024-01-11T05:34:19;99532.59;;;-8.87;66.37
74975;BME280;68459;50.836;19.138;2024-01-11T05:37:23;99532.88;;;-8.76;66.13
74975;BME280;68459;50.836;19.138;2024-01-11T05:40:27;99526.25;;;-8.66;66.41
74975;BME280;68459;50.836;19.138;2024-01-11T05:43:32;99525.91;;;-8.59;66.11
74975;BME280;68459;50.836;19.138;2024-01-11T05:46:37;99512.59;;;-8.55;65.87
74975;BME280;68459;50.836;19.138;2024-01-11T05:49:41;99499.44;;;-8.53;65.92
74975;BME280;68459;50.836;19.138;2024-01-11T05:52:45;99497.81;;;-8.56;65.32
74975;BME280;68459;50.836;19.138;2024-01-11T05:55:49;99491.31;;;-8.65;65.67
74975;BME280;68459;50.836;19.138;2024-01-11T05:58:56;99480.44;;;-8.73;66.01
74975;BME280;68459;50.836;19.138;2024-01-11T06:02:02;99482.13;;;-8.72;65.79
74975;BME280;68459;50.836;19.138;2024-01-11T06:05:08;99463.22;;;-8.61;66.17
74975;BME280;68459;50.836;19.138;2024-01-11T06:08:12;99474.03;;;-8.51;66.06
74975;BME280;68459;50.836;19.138;2024-01-11T06:11:16;99472.84;;;-8.46;65.92
74975;BME280;68459;50.836;19.138;2024-01-11T06:14:20;99478.50;;;-8.38;65.99
74975;BME280;68459;50.836;19.138;2024-01-11T06:17:26;99474.75;;;-8.18;65.64
74975;BME280;68459;50.836;19.138;2024-01-11T06:20:30;99467.13;;;-8.07;65.56
74975;BME280;68459;50.836;19.138;2024-01-11T06:23:34;99459.66;;;-7.99;65.47
74975;BME280;68459;50.836;19.138;2024-01-11T06:26:38;99450.38;;;-7.88;65.17
74975;BME280;68459;50.836;19.138;2024-01-11T06:29:42;99447.97;;;-7.77;65.33
74975;BME280;68459;50.836;19.138;2024-01-11T06:32:47;99460.44;;;-7.67;64.99
74975;BME280;68459;50.836;19.138;2024-01-11T06:35:51;99454.22;;;-7.50;64.93
74975;BME280;68459;50.836;19.138;2024-01-11T06:38:56;99433.38;;;-7.37;65.22
74975;BME280;68459;50.836;19.138;2024-01-11T06:41:59;99432.38;;;-7.21;64.27
74975;BME280;68459;50.836;19.138;2024-01-11T06:45:04;99435.84;;;-7.06;63.95
74975;BME280;68459;50.836;19.138;2024-01-11T06:48:10;99439.38;;;-6.93;64.10
74975;BME280;68459;50.836;19.138;2024-01-11T06:51:15;99415.97;;;-6.81;63.85
74975;BME280;68459;50.836;19.138;2024-01-11T06:54:19;99426.69;;;-6.72;63.97
74975;BME280;68459;50.836;19.138;2024-01-11T06:57:23;99430.31;;;-6.60;63.78
74975;BME280;68459;50.836;19.138;2024-01-11T07:00:27;99431.50;;;-6.52;62.99
74975;BME280;68459;50.836;19.138;2024-01-11T07:03:33;99441.72;;;-6.47;63.12
74975;BME280;68459;50.836;19.138;2024-01-11T07:06:37;99432.22;;;-6.35;62.75
74975;BME280;68459;50.836;19.138;2024-01-11T07:09:41;99426.09;;;-6.22;63.04
74975;BME280;68459;50.836;19.138;2024-01-11T07:12:45;99410.56;;;-6.12;61.93
74975;BME280;68459;50.836;19.138;2024-01-11T07:15:51;99405.69;;;-6.04;62.20
74975;BME280;68459;50.836;19.138;2024-01-11T07:18:56;99407.78;;;-5.96;61.98
74975;BME280;68459;50.836;19.138;2024-01-11T07:22:00;99394.88;;;-5.87;62.05
74975;BME280;68459;50.836;19.138;2024-01-11T07:25:04;99391.84;;;-5.81;62.02
74975;BME280;68459;50.836;19.138;2024-01-11T07:28:09;99387.50;;;-5.82;61.69
74975;BME280;68459;50.836;19.138;2024-01-11T07:31:13;99374.72;;;-5.86;61.74
74975;BME280;68459;50.836;19.138;2024-01-11T07:34:18;99379.97;;;-5.86;61.63
74975;BME280;68459;50.836;19.138;2024-01-11T07:37:23;99398.97;;;-5.83;61.61
74975;BME280;68459;50.836;19.138;2024-01-11T07:40:29;99393.13;;;-5.73;61.04
74975;BME280;68459;50.836;19.138;2024-01-11T07:43:37;99409.19;;;-5.65;59.45
74975;BME280;68459;50.836;19.138;2024-01-11T07:46:55;99400.91;;;-5.59;60.66
74975;BME280;68459;50.836;19.138;2024-01-11T07:50:05;99390.81;;;-5.53;59.79
74975;BME280;68459;50.836;19.138;2024-01-11T07:53:12;99385.34;;;-5.50;59.68
74975;BME280;68459;50.836;19.138;2024-01-11T07:56:17;99396.50;;;-5.46;59.39
74975;BME280;68459;50.836;19.138;2024-01-11T07:59:21;99390.16;;;-5.44;59.47
74975;BME280;68459;50.836;19.138;2024-01-11T08:02:25;99391.34;;;-5.35;59.86
74975;BME280;68459;50.836;19.138;2024-01-11T08:05:31;99392.19;;;-5.22;59.58
74975;BME280;68459;50.836;19.138;2024-01-11T08:08:35;99385.22;;;-5.10;59.58
74975;BME280;68459;50.836;19.138;2024-01-11T08:11:40;99377.53;;;-5.00;59.81
74975;BME280;68459;50.836;19.138;2024-01-11T08:14:51;99383.81;;;-4.90;59.55
74975;BME280;68459;50.836;19.138;2024-01-11T08:17:55;99406.13;;;-4.83;58.92
74975;BME280;68459;50.836;19.138;2024-01-11T08:21:00;99396.81;;;-4.76;59.44
74975;BME280;68459;50.836;19.138;2024-01-11T08:24:05;99407.66;;;-4.68;58.48
74975;BME280;68459;50.836;19.138;2024-01-11T08:27:09;99391.78;;;-4.67;58.77
74975;BME280;68459;50.836;19.138;2024-01-11T08:30:14;99393.56;;;-4.67;58.50
74975;BME280;68459;50.836;19.138;2024-01-11T08:33:19;99400.50;;;-4.66;58.23
74975;BME280;68459;50.836;19.138;2024-01-11T08:36:24;99395.53;;;-4.58;58.63
74975;BME280;68459;50.836;19.138;2024-01-11T08:39:35;99405.38;;;-4.49;59.23
74975;BME280;68459;50.836;19.138;2024-01-11T08:42:40;99397.53;;;-4.38;58.38
74975;BME280;68459;50.836;19.138;2024-01-11T08:45:44;99405.00;;;-4.32;58.54
74975;BME280;68459;50.836;19.138;2024-01-11T08:48:49;99394.63;;;-4.22;57.88
74975;BME280;68459;50.836;19.138;2024-01-11T08:51:54;99382.34;;;-4.10;57.95
74975;BME280;68459;50.836;19.138;2024-01-11T08:54:58;99382.19;;;-3.96;57.99
74975;BME280;68459;50.836;19.138;2024-01-11T08:58:02;99371.09;;;-3.88;57.53
74975;BME280;68459;50.836;19.138;2024-01-11T09:01:07;99392.50;;;-3.93;57.52
74975;BME280;68459;50.836;19.138;2024-01-11T09:04:11;99379.44;;;-3.95;57.92
74975;BME280;68459;50.836;19.138;2024-01-11T09:07:17;99392.31;;;-3.79;58.25
74975;BME280;68459;50.836;19.138;2024-01-11T09:10:21;99392.56;;;-3.71;57.02
74975;BME280;68459;50.836;19.138;2024-01-11T09:13:25;99389.69;;;-3.68;58.07
74975;BME280;68459;50.836;19.138;2024-01-11T09:16:29;99392.09;;;-3.65;57.98
74975;BME280;68459;50.836;19.138;2024-01-11T09:19:33;99401.59;;;-3.62;57.04
74975;BME280;68459;50.836;19.138;2024-01-11T09:22:38;99397.88;;;-3.60;58.36
74975;BME280;68459;50.836;19.138;2024-01-11T09:25:42;99389.72;;;-3.56;57.62
74975;BME280;68459;50.836;19.138;2024-01-11T09:28:46;99372.84;;;-3.54;58.03
74975;BME280;68459;50.836;19.138;2024-01-11T09:31:50;99380.88;;;-3.44;58.27
74975;BME280;68459;50.836;19.138;2024-01-11T09:34:54;99366.50;;;-3.40;58.39
74975;BME280;68459;50.836;19.138;2024-01-11T09:37:59;99369.03;;;-3.28;58.14
74975;BME280;68459;50.836;19.138;2024-01-11T09:41:07;99350.78;;;-3.19;58.33
74975;BME280;68459;50.836;19.138;2024-01-11T09:44:14;99359.44;;;-3.17;57.63
74975;BME280;68459;50.836;19.138;2024-01-11T09:47:21;99361.97;;;-3.16;58.64
74975;BME280;68459;50.836;19.138;2024-01-11T09:50:25;99358.47;;;-3.05;58.29
74975;BME280;68459;50.836;19.138;2024-01-11T09:53:33;99353.34;;;-2.96;58.24
74975;BME280;68459;50.836;19.138;2024-01-11T09:56:38;99349.00;;;-2.85;58.45
74975;BME280;68459;50.836;19.138;2024-01-11T09:59:43;99359.66;;;-2.76;57.93
74975;BME280;68459;50.836;19.138;2024-01-11T10:02:47;99361.94;;;-2.71;58.01
74975;BME280;68459;50.836;19.138;2024-01-11T10:05:55;99348.38;;;-2.67;58.31
74975;BME280;68459;50.836;19.138;2024-01-11T10:09:03;99354.75;;;-2.69;58.00
74975;BME280;68459;50.836;19.138;2024-01-11T10:12:08;99366.97;;;-2.68;58.16
74975;BME280;68459;50.836;19.138;2024-01-11T10:15:13;99362.91;;;-2.72;58.36
74975;BME280;68459;50.836;19.138;2024-01-11T10:18:17;99381.38;;;-2.72;58.78
74975;BME280;68459;50.836;19.138;2024-01-11T10:21:27;99380.88;;;-2.77;58.58
74975;BME280;68459;50.836;19.138;2024-01-11T10:24:34;99372.75;;;-2.85;58.59
74975;BME280;68459;50.836;19.138;2024-01-11T10:27:40;99366.97;;;-2.91;58.70
74975;BME280;68459;50.836;19.138;2024-01-11T10:30:46;99368.44;;;-2.87;58.81
74975;BME280;68459;50.836;19.138;2024-01-11T10:33:51;99368.28;;;-2.74;58.98
74975;BME280;68459;50.836;19.138;2024-01-11T10:36:56;99369.72;;;-2.59;59.28
74975;BME280;68459;50.836;19.138;2024-01-11T10:40:03;99364.91;;;-2.54;59.19
74975;BME280;68459;50.836;19.138;2024-01-11T10:43:16;99347.28;;;-2.53;58.65
74975;BME280;68459;50.836;19.138;2024-01-11T10:46:25;99333.72;;;-2.60;58.29
74975;BME280;68459;50.836;19.138;2024-01-11T10:49:30;99347.53;;;-2.67;58.44
74975;BME280;68459;50.836;19.138;2024-01-11T10:52:43;99340.22;;;-2.75;58.58
74975;BME280;68459;50.836;19.138;2024-01-11T10:56:09;99337.56;;;-2.75;59.21
74975;BME280;68459;50.836;19.138;2024-01-11T10:59:16;99336.63;;;-2.74;58.87
74975;BME280;68459;50.836;19.138;2024-01-11T11:02:22;99315.13;;;-2.69;59.59
74975;BME280;68459;50.836;19.138;2024-01-11T11:05:28;99305.91;;;-2.75;58.69
74975;BME280;68459;50.836;19.138;2024-01-11T11:08:33;99315.84;;;-2.78;59.00
74975;BME280;68459;50.836;19.138;2024-01-11T11:11:41;99303.16;;;-2.84;59.01
74975;BME280;68459;50.836;19.138;2024-01-11T11:14:46;99310.59;;;-2.67;59.29
74975;BME280;68459;50.836;19.138;2024-01-11T11:17:51;99303.31;;;-2.43;59.00
74975;BME280;68459;50.836;19.138;2024-01-11T11:20:55;99296.75;;;-2.28;59.18
74975;BME280;68459;50.836;19.138;2024-01-11T11:23:59;99287.16;;;-2.08;58.76
74975;BME280;68459;50.836;19.138;2024-01-11T11:27:05;99299.41;;;-1.86;58.66
74975;BME280;68459;50.836;19.138;2024-01-11T11:30:10;99303.53;;;-1.72;58.47
74975;BME280;68459;50.836;19.138;2024-01-11T11:33:17;99302.50;;;-1.81;58.40
74975;BME280;68459;50.836;19.138;2024-01-11T11:36:28;99291.09;;;-2.02;58.17
74975;BME280;68459;50.836;19.138;2024-01-11T11:39:32;99300.06;;;-2.14;58.98
74975;BME280;68459;50.836;19.138;2024-01-11T11:42:39;99305.38;;;-2.26;58.78
74975;BME280;68459;50.836;19.138;2024-01-11T11:45:46;99308.72;;;-2.24;58.98
74975;BME280;68459;50.836;19.138;2024-01-11T11:48:52;99300.06;;;-2.14;59.25
74975;BME280;68459;50.836;19.138;2024-01-11T11:51:57;99298.06;;;-2.01;59.26
74975;BME280;68459;50.836;19.138;2024-01-11T11:55:02;99292.78;;;-2.01;59.11
74975;BME280;68459;50.836;19.138;2024-01-11T11:58:12;99300.97;;;-2.04;59.12
74975;BME280;68459;50.836;19.138;2024-01-11T12:01:18;99293.34;;;-2.19;59.55
74975;BME280;68459;50.836;19.138;2024-01-11T12:04:21;99290.50;;;-2.27;59.07
74975;BME280;68459;50.836;19.138;2024-01-11T12:07:26;99276.97;;;-2.33;60.05
74975;BME280;68459;50.836;19.138;2024-01-11T12:10:33;99275.34;;;-2.25;59.78
74975;BME280;68459;50.836;19.138;2024-01-11T12:13:39;99272.91;;;-2.17;60.14
74975;BME280;68459;50.836;19.138;2024-01-11T12:16:44;99275.94;;;-2.21;59.70
74975;BME280;68459;50.836;19.138;2024-01-11T12:19:48;99269.16;;;-2.35;59.95
74975;BME280;68459;50.836;19.138;2024-01-11T12:22:52;99262.72;;;-2.42;60.07
74975;BME280;68459;50.836;19.138;2024-01-11T12:25:57;99251.94;;;-2.50;60.38
74975;BME280;68459;50.836;19.138;2024-01-11T12:29:02;99248.72;;;-2.54;60.48
74975;BME280;68459;50.836;19.138;2024-01-11T12:32:07;99249.59;;;-2.64;60.82
74975;BME280;68459;50.836;19.138;2024-01-11T12:35:13;99239.03;;;-2.64;60.76
74975;BME280;68459;50.836;19.138;2024-01-11T12:38:17;99228.34;;;-2.63;61.13
74975;BME280;68459;50.836;19.138;2024-01-11T12:41:24;99225.34;;;-2.58;60.99
74975;BME280;68459;50.836;19.138;2024-01-11T12:44:30;99213.81;;;-2.57;61.08
74975;BME280;68459;50.836;19.138;2024-01-11T12:47:35;99215.03;;;-2.61;60.45
74975;BME280;68459;50.836;19.138;2024-01-11T12:50:41;99215.28;;;-2.64;60.88
74975;BME280;68459;50.836;19.138;2024-01-11T12:53:45;99209.16;;;-2.65;61.36
74975;BME280;68459;50.836;19.138;2024-01-11T12:56:51;99203.03;;;-2.65;61.67
74975;BME280;68459;50.836;19.138;2024-01-11T13:00:09;99194.69;;;-2.70;61.86
74975;BME280;68459;50.836;19.138;2024-01-11T13:03:14;99200.84;;;-2.60;62.35
74975;BME280;68459;50.836;19.138;2024-01-11T13:06:17;99198.94;;;-2.58;61.96
74975;BME280;68459;50.836;19.138;2024-01-11T13:09:23;99188.84;;;-2.53;61.61
74975;BME280;68459;50.836;19.138;2024-01-11T13:12:28;99192.03;;;-2.49;61.67
74975;BME280;68459;50.836;19.138;2024-01-11T13:15:34;99199.84;;;-2.48;61.95
74975;BME280;68459;50.836;19.138;2024-01-11T13:18:39;99197.56;;;-2.53;61.62
74975;BME280;68459;50.836;19.138;2024-01-11T13:21:43;99206.84;;;-2.58;62.76
74975;BME280;68459;50.836;19.138;2024-01-11T13:24:47;99209.16;;;-2.65;62.01
74975;BME280;68459;50.836;19.138;2024-01-11T13:27:51;99211.47;;;-2.71;62.58
74975;BME280;68459;50.836;19.138;2024-01-11T13:30:56;99207.03;;;-2.71;62.83
74975;BME280;68459;50.836;19.138;2024-01-11T13:34:01;99217.19;;;-2.66;62.91
74975;BME280;68459;50.836;19.138;2024-01-11T13:37:05;99218.19;;;-2.67;63.14
74975;BME280;68459;50.836;19.138;2024-01-11T13:40:10;99205.00;;;-2.67;63.61
74975;BME280;68459;50.836;19.138;2024-01-11T13:43:15;99199.72;;;-2.67;64.22
74975;BME280;68459;50.836;19.138;2024-01-11T13:46:21;99208.84;;;-2.71;63.21
74975;BME280;68459;50.836;19.138;2024-01-11T13:49:25;99199.88;;;-2.80;63.66
74975;BME280;68459;50.836;19.138;2024-01-11T13:52:29;99218.00;;;-2.87;63.87
74975;BME280;68459;50.836;19.138;2024-01-11T13:55:33;99218.25;;;-2.90;65.07
74975;BME280;68459;50.836;19.138;2024-01-11T13:58:41;99213.09;;;-2.91;65.55
74975;BME280;68459;50.836;19.138;2024-01-11T14:01:48;99210.25;;;-2.99;65.49
74975;BME280;68459;50.836;19.138;2024-01-11T14:04:52;99211.31;;;-3.02;65.48
74975;BME280;68459;50.836;19.138;2024-01-11T14:07:56;99213.97;;;-3.02;65.30
74975;BME280;68459;50.836;19.138;2024-01-11T14:11:03;99216.41;;;-3.10;66.72
74975;BME280;68459;50.836;19.138;2024-01-11T14:14:07;99204.88;;;-3.09;66.21
74975;BME280;68459;50.836;19.138;2024-01-11T14:17:13;99227.66;;;-3.08;66.27
74975;BME280;68459;50.836;19.138;2024-01-11T14:20:17;99224.56;;;-3.13;65.91
74975;BME280;68459;50.836;19.138;2024-01-11T14:23:21;99229.81;;;-3.13;66.13
74975;BME280;68459;50.836;19.138;2024-01-11T14:26:25;99236.06;;;-3.14;66.85
74975;BME280;68459;50.836;19.138;2024-01-11T14:29:29;99241.34;;;-3.14;66.41
74975;BME280;68459;50.836;19.138;2024-01-11T14:32:34;99250.09;;;-3.13;66.29
74975;BME280;68459;50.836;19.138;2024-01-11T14:35:39;99247.34;;;-3.12;66.97
74975;BME280;68459;50.836;19.138;2024-01-11T14:38:43;99244.94;;;-3.15;68.00
74975;BME280;68459;50.836;19.138;2024-01-11T14:41:47;99242.53;;;-3.18;67.20
74975;BME280;68459;50.836;19.138;2024-01-11T14:44:51;99248.31;;;-3.24;67.13
74975;BME280;68459;50.836;19.138;2024-01-11T14:47:57;99246.75;;;-3.27;67.79
74975;BME280;68459;50.836;19.138;2024-01-11T14:51:01;99241.59;;;-3.28;67.49
74975;BME280;68459;50.836;19.138;2024-01-11T14:54:07;99246.88;;;-3.28;66.67
74975;BME280;68459;50.836;19.138;2024-01-11T14:57:11;99248.66;;;-3.29;67.60
74975;BME280;68459;50.836;19.138;2024-01-11T15:00:16;99233.81;;;-3.30;67.89
74975;BME280;68459;50.836;19.138;2024-01-11T15:03:22;99227.69;;;-3.30;67.99
74975;BME280;68459;50.836;19.138;2024-01-11T15:06:26;99230.22;;;-3.29;67.03
74975;BME280;68459;50.836;19.138;2024-01-11T15:09:30;99239.19;;;-3.31;67.46
74975;BME280;68459;50.836;19.138;2024-01-11T15:12:35;99243.50;;;-3.30;67.69
74975;BME280;68459;50.836;19.138;2024-01-11T15:15:38;99244.03;;;-3.36;68.78
74975;BME280;68459;50.836;19.138;2024-01-11T15:18:44;99245.94;;;-3.38;68.15
74975;BME280;68459;50.836;19.138;2024-01-11T15:21:48;99246.16;;;-3.41;67.99
74975;BME280;68459;50.836;19.138;2024-01-11T15:24:55;99239.22;;;-3.42;68.03
74975;BME280;68459;50.836;19.138;2024-01-11T15:27:58;99238.50;;;-3.44;68.78
74975;BME280;68459;50.836;19.138;2024-01-11T15:31:03;99250.00;;;-3.45;68.13
74975;BME280;68459;50.836;19.138;2024-01-11T15:34:09;99240.91;;;-3.41;68.87
74975;BME280;68459;50.836;19.138;2024-01-11T15:37:13;99252.78;;;-3.36;68.68
74975;BME280;68459;50.836;19.138;2024-01-11T15:40:17;99250.00;;;-3.34;67.90
74975;BME280;68459;50.836;19.138;2024-01-11T15:43:22;99242.69;;;-3.31;68.67
74975;BME280;68459;50.836;19.138;2024-01-11T15:46:26;99248.78;;;-3.30;68.75
74975;BME280;68459;50.836;19.138;2024-01-11T15:49:33;99253.81;;;-3.27;68.41
74975;BME280;68459;50.836;19.138;2024-01-11T15:52:37;99259.81;;;-3.25;68.96
74975;BME280;68459;50.836;19.138;2024-01-11T15:55:42;99258.88;;;-3.24;69.05
74975;BME280;68459;50.836;19.138;2024-01-11T15:58:46;99261.38;;;-3.22;69.34
74975;BME280;68459;50.836;19.138;2024-01-11T16:01:51;99257.78;;;-3.21;70.05
74975;BME280;68459;50.836;19.138;2024-01-11T16:05:09;99247.13;;;-3.20;71.03
74975;BME280;68459;50.836;19.138;2024-01-11T16:08:15;99243.03;;;-3.24;69.67